Time;durP1;ratioP1;P1;durP2;ratioP2;P2;SDS_P1;SDS_P2;PMS_P1;PMS_P2;Temp;Humidity;BMP_temperature;BMP_pressure;BME280_temperature;BME280_humidity;BME280_pressure;Samples;Min_cycle;Max_cycle;Signal;HPM_P1;HPM_P2
2023/04/20 00:01:27;;;;;;;;;;;;;;;12.50;100.00;97899.38;5026610;28;19921;-64
2023/04/20 00:03:52;;;;;;;;;;;;;;;12.66;100.00;97891.41;5025501;28;19925;-62
2023/04/20 00:06:17;;;;;;;;;;;;;;;12.76;100.00;97893.81;5039575;28;19932;-61
2023/04/20 00:08:43;;;;;;;;;;;;;;;12.71;100.00;97890.91;5025976;28;19925;-61
2023/04/20 00:11:08;;;;;;;;;;;;;;;12.50;100.00;97902.81;5027671;28;19925;-62
2023/04/20 00:13:33;;;;;;;;;;;;;;;12.39;100.00;97905.78;5020376;28;19921;-60
2023/04/20 00:15:59;;;;;;;;;;;;;;;12.23;100.00;97908.50;5045379;28;19921;-61
2023/04/20 00:18:24;;;;;;;;;;;;;;;12.11;100.00;97897.69;5026302;28;20395;-61
2023/04/20 00:20:52;;;;;;;;;;;;;;;12.12;100.00;97886.28;5027604;28;20424;-63
2023/04/20 00:23:19;;;;;;;;;;;;;;;12.32;100.00;97889.25;5027467;28;20969;-60
2023/04/20 00:25:45;;;;;;;;;;;;;;;12.36;100.00;97893.13;5026114;28;20011;-60
2023/04/20 00:28:10;;;;;;;;;;;;;;;12.38;100.00;97885.94;5027392;28;20008;-60
2023/04/20 00:30:38;;;;;;;;;;;;;;;12.26;100.00;97880.31;5025976;28;20433;-59
2023/04/20 00:33:05;;;;;;;;;;;;;;;12.20;100.00;97875.78;5024944;28;20030;-61
2023/04/20 00:35:30;;;;;;;;;;;;;;;12.32;100.00;97871.00;5044365;28;19925;-61
2023/04/20 00:37:56;;;;;;;;;;;;;;;12.41;100.00;97871.72;5027902;28;19936;-61
2023/04/20 00:40:21;;;;;;;;;;;;;;;12.30;100.00;97870.34;5027347;28;19920;-61
2023/04/20 00:42:46;;;;;;;;;;;;;;;12.19;100.00;97870.75;5027151;28;19925;-60
2023/04/20 00:45:12;;;;;;;;;;;;;;;12.25;100.00;97872.69;5013354;28;20015;-60
2023/04/20 00:47:37;;;;;;;;;;;;;;;12.24;100.00;97865.84;5024850;28;20721;-60
2023/04/20 00:50:05;;;;;;;;;;;;;;;12.16;100.00;97858.88;5013435;28;19925;-60
2023/04/20 00:52:30;;;;;;;;;;;;;;;12.19;100.00;97853.31;5043237;28;20351;-60
2023/04/20 00:54:56;;;;;;;;;;;;;;;12.22;100.00;97854.78;5020322;28;19924;-61
2023/04/20 00:57:22;;;;;;;;;;;;;;;12.27;100.00;97857.69;5002707;28;19924;-60
2023/04/20 00:59:51;;;;;;;;;;;;;;;12.26;100.00;97850.81;5009660;28;19921;-60
2023/04/20 01:02:19;;;;;;;;;;;;;;;12.11;100.00;97850.78;5005741;28;19928;-61
2023/04/20 01:04:47;;;;;;;;;;;;;;;11.98;100.00;97850.53;5008288;28;19921;-60
2023/04/20 01:07:12;;;;;;;;;;;;;;;11.81;100.00;97847.16;5025884;28;19928;-60
2023/04/20 01:09:41;;;;;;;;;;;;;;;11.86;100.00;97850.06;5012481;28;20514;-59
2023/04/20 01:12:08;;;;;;;;;;;;;;;12.01;100.00;97845.78;5008734;28;19929;-59
2023/04/20 01:14:33;;;;;;;;;;;;;;;12.15;100.00;97846.03;5008681;28;19925;-60
2023/04/20 01:16:58;;;;;;;;;;;;;;;12.26;100.00;97849.03;5011122;28;20294;-60
2023/04/20 01:19:26;;;;;;;;;;;;;;;12.31;100.00;97845.91;5010716;28;20536;-59
2023/04/20 01:21:51;;;;;;;;;;;;;;;12.36;100.00;97838.38;5026029;28;19963;-59
2023/04/20 01:24:19;;;;;;;;;;;;;;;12.35;100.00;97841.16;5010361;28;19964;-59
2023/04/20 01:26:47;;;;;;;;;;;;;;;12.28;100.00;97841.88;5036156;28;19927;-60
2023/04/20 01:29:17;;;;;;;;;;;;;;;12.28;100.00;97844.47;5041695;28;20154;-59
2023/04/20 01:31:45;;;;;;;;;;;;;;;12.29;100.00;97846.06;5025128;28;19988;-60
2023/04/20 01:34:10;;;;;;;;;;;;;;;12.31;100.00;97843.31;5023719;28;19956;-59
2023/04/20 01:36:35;;;;;;;;;;;;;;;12.31;100.00;97845.91;5010295;28;20002;-60
2023/04/20 01:39:03;;;;;;;;;;;;;;;12.25;100.00;97846.63;5040556;28;19929;-60
2023/04/20 01:41:28;;;;;;;;;;;;;;;12.05;100.00;97846.25;5008119;28;20023;-59
2023/04/20 01:43:54;;;;;;;;;;;;;;;11.91;100.00;97847.78;5004636;28;20030;-60
2023/04/20 01:46:19;;;;;;;;;;;;;;;11.68;100.00;97850.31;5024114;28;19964;-59
2023/04/20 01:48:44;;;;;;;;;;;;;;;11.58;100.00;97847.94;5016586;28;19920;-59
2023/04/20 01:51:10;;;;;;;;;;;;;;;11.49;100.00;97843.75;5022672;28;19979;-59
2023/04/20 01:53:37;;;;;;;;;;;;;;;11.62;100.00;97836.19;5009390;28;19982;-59
2023/04/20 01:56:04;;;;;;;;;;;;;;;11.61;100.00;97833.75;5023990;28;19921;-59
2023/04/20 01:58:30;;;;;;;;;;;;;;;11.72;100.00;97829.00;5025900;28;19940;-60
2023/04/20 02:00:55;;;;;;;;;;;;;;;11.79;100.00;97823.91;5022306;28;19931;-59
2023/04/20 02:03:21;;;;;;;;;;;;;;;11.88;100.00;97835.06;4991088;28;19925;-60
2023/04/20 02:05:46;;;;;;;;;;;;;;;11.92;100.00;97837.22;4990441;28;19956;-60
2023/04/20 02:08:11;;;;;;;;;;;;;;;11.93;100.00;97833.59;4996534;28;20053;-59
2023/04/20 02:10:37;;;;;;;;;;;;;;;12.03;100.00;97832.56;4989819;28;20388;-60
2023/04/20 02:13:02;;;;;;;;;;;;;;;11.93;100.00;97824.97;4984550;28;20872;-59
2023/04/20 02:15:27;;;;;;;;;;;;;;;11.97;100.00;97825.44;5006107;28;19928;-59
2023/04/20 02:17:57;;;;;;;;;;;;;;;12.05;100.00;97828.03;4991429;28;19955;-59
2023/04/20 02:20:23;;;;;;;;;;;;;;;12.08;100.00;97835.47;4989690;28;19964;-59
2023/04/20 02:22:49;;;;;;;;;;;;;;;12.10;100.00;97841.31;4999805;28;20343;-61
2023/04/20 02:25:16;;;;;;;;;;;;;;;12.06;100.00;97835.63;4991488;28;19926;-59
2023/04/20 02:27:42;;;;;;;;;;;;;;;12.12;100.00;97839.38;4986612;28;20339;-60
2023/04/20 02:30:07;;;;;;;;;;;;;;;12.16;100.00;97839.84;5011960;28;19921;-59
2023/04/20 02:32:35;;;;;;;;;;;;;;;12.07;100.00;97839.88;5003922;28;19931;-60
2023/04/20 02:35:03;;;;;;;;;;;;;;;12.05;100.00;97830.63;4997593;28;19922;-60
2023/04/20 02:37:28;;;;;;;;;;;;;;;12.06;100.00;97832.22;4994624;28;19975;-60
2023/04/20 02:39:54;;;;;;;;;;;;;;;11.97;100.00;97831.47;4987380;28;19925;-61
2023/04/20 02:42:19;;;;;;;;;;;;;;;11.97;100.00;97826.25;5005847;28;19925;-60
2023/04/20 02:44:45;;;;;;;;;;;;;;;11.96;100.00;97822.03;5007651;28;20016;-60
2023/04/20 02:47:10;;;;;;;;;;;;;;;11.81;100.00;97815.91;5009236;28;19917;-60
2023/04/20 02:49:35;;;;;;;;;;;;;;;11.82;100.00;97813.13;4993604;28;20753;-60
2023/04/20 02:52:03;;;;;;;;;;;;;;;11.89;100.00;97815.88;4991279;28;19935;-60
2023/04/20 02:54:31;;;;;;;;;;;;;;;11.86;100.00;97817.00;5009531;28;19929;-60
2023/04/20 02:56:57;;;;;;;;;;;;;;;11.82;100.00;97820.16;4994808;28;19925;-60
2023/04/20 02:59:23;;;;;;;;;;;;;;;11.86;100.00;97818.81;5004737;28;19932;-60
2023/04/20 03:01:48;;;;;;;;;;;;;;;11.85;100.00;97812.78;5014268;28;21162;-60
2023/04/20 03:04:16;;;;;;;;;;;;;;;11.91;100.00;97824.34;5030712;28;20294;-60
2023/04/20 03:06:44;;;;;;;;;;;;;;;11.89;100.00;97823.69;5045057;28;19931;-60
2023/04/20 03:09:09;;;;;;;;;;;;;;;11.91;100.00;97827.75;5028593;28;20083;-60
2023/04/20 03:11:37;;;;;;;;;;;;;;;11.88;100.00;97824.66;5027448;28;20531;-59
2023/04/20 03:14:02;;;;;;;;;;;;;;;11.85;100.00;97820.63;5017959;28;20607;-59
2023/04/20 03:16:28;;;;;;;;;;;;;;;11.79;100.00;97820.47;5033243;28;21213;-60
2023/04/20 03:18:53;;;;;;;;;;;;;;;11.92;100.00;97824.19;5024091;28;20709;-60
2023/04/20 03:21:21;;;;;;;;;;;;;;;11.80;100.00;97820.31;5027774;28;20343;-60
2023/04/20 03:23:47;;;;;;;;;;;;;;;11.83;100.00;97814.78;5035902;28;19964;-59
2023/04/20 03:26:14;;;;;;;;;;;;;;;11.83;100.00;97816.56;5026265;28;19964;-60
2023/04/20 03:28:43;;;;;;;;;;;;;;;11.69;100.00;97812.88;5031338;28;19956;-60
2023/04/20 03:31:08;;;;;;;;;;;;;;;11.58;100.00;97813.28;5025768;28;20003;-60
2023/04/20 03:33:36;;;;;;;;;;;;;;;11.68;100.00;97819.91;5027799;28;20019;-59
2023/04/20 03:36:03;;;;;;;;;;;;;;;11.54;100.00;97810.22;5044300;28;20024;-60
2023/04/20 03:38:30;;;;;;;;;;;;;;;11.60;100.00;97811.31;5045252;28;20454;-59
2023/04/20 03:40:55;;;;;;;;;;;;;;;11.61;100.00;97811.16;5033291;28;19925;-60
2023/04/20 03:43:23;;;;;;;;;;;;;;;11.59;100.00;97818.31;5028734;28;20299;-59
2023/04/20 03:45:51;;;;;;;;;;;;;;;11.54;100.00;97816.22;5015036;28;19917;-60
2023/04/20 03:48:16;;;;;;;;;;;;;;;11.62;100.00;97814.56;5027314;28;19932;-59
2023/04/20 03:50:41;;;;;;;;;;;;;;;11.51;100.00;97819.16;5027173;28;19920;-60
2023/04/20 03:53:07;;;;;;;;;;;;;;;11.56;100.00;97813.44;5026895;28;19925;-60
2023/04/20 03:55:32;;;;;;;;;;;;;;;11.48;100.00;97816.91;5039509;28;20319;-60
2023/04/20 03:58:00;;;;;;;;;;;;;;;11.46;100.00;97815.44;5027288;28;19921;-59
2023/04/20 04:00:27;;;;;;;;;;;;;;;11.58;100.00;97813.28;5027364;28;19925;-59
2023/04/20 04:02:52;;;;;;;;;;;;;;;11.40;100.00;97816.13;5028597;28;19975;-59
2023/04/20 04:05:18;;;;;;;;;;;;;;;11.35;100.00;97809.63;5041722;28;20544;-62
2023/04/20 04:07:43;;;;;;;;;;;;;;;11.46;100.00;97810.22;5027695;28;19991;-60
2023/04/20 04:10:12;;;;;;;;;;;;;;;11.35;100.00;97808.81;5026211;28;19920;-59
2023/04/20 04:12:37;;;;;;;;;;;;;;;11.27;100.00;97809.66;5033676;28;19928;-59
2023/04/20 04:15:02;;;;;;;;;;;;;;;11.34;100.00;97809.81;5009985;28;20004;-59
2023/04/20 04:17:28;;;;;;;;;;;;;;;11.25;100.00;97803.00;5036038;28;19921;-60
2023/04/20 04:19:53;;;;;;;;;;;;;;;11.29;100.00;97812.91;5006770;28;20347;-60
2023/04/20 04:22:20;;;;;;;;;;;;;;;11.26;100.00;97805.44;5023452;28;19924;-60
2023/04/20 04:24:48;;;;;;;;;;;;;;;11.20;100.00;97806.09;5019526;28;19994;-59
2023/04/20 04:27:16;;;;;;;;;;;;;;;11.28;100.00;97807.84;5024810;28;19928;-59
2023/04/20 04:29:41;;;;;;;;;;;;;;;11.25;100.00;97811.63;5003505;28;19928;-60
2023/04/20 04:32:10;;;;;;;;;;;;;;;11.19;100.00;97814.06;5025726;28;19920;-60
2023/04/20 04:34:36;;;;;;;;;;;;;;;11.24;100.00;97822.19;5000768;28;19928;-60
2023/04/20 04:37:04;;;;;;;;;;;;;;;11.24;100.00;97820.41;5010077;28;19925;-60
2023/04/20 04:39:29;;;;;;;;;;;;;;;11.27;100.00;97816.66;5007800;28;19932;-60
2023/04/20 04:41:56;;;;;;;;;;;;;;;11.35;100.00;97811.41;5027767;28;19924;-60
2023/04/20 04:44:21;;;;;;;;;;;;;;;11.31;100.00;97802.31;5043662;28;20004;-60
2023/04/20 04:46:50;;;;;;;;;;;;;;;11.29;100.00;97801.69;5039844;28;20160;-60
2023/04/20 04:49:15;;;;;;;;;;;;;;;11.19;100.00;97807.09;5027677;28;19982;-60
2023/04/20 04:51:40;;;;;;;;;;;;;;;11.19;100.00;97801.91;5025014;28;19921;-60
2023/04/20 04:54:05;;;;;;;;;;;;;;;11.13;100.00;97803.38;5043381;28;19963;-59
2023/04/20 04:56:31;;;;;;;;;;;;;;;11.14;100.00;97804.19;5024041;28;20440;-60
2023/04/20 04:58:58;;;;;;;;;;;;;;;11.02;100.00;97795.13;5025490;28;20681;-60
2023/04/20 05:01:24;;;;;;;;;;;;;;;10.97;100.00;97795.63;5038680;28;19948;-60
2023/04/20 05:03:51;;;;;;;;;;;;;;;10.97;100.00;97798.22;5025660;28;20363;-60
2023/04/20 05:06:17;;;;;;;;;;;;;;;10.99;100.00;97796.28;5022343;28;19956;-59
2023/04/20 05:08:42;;;;;;;;;;;;;;;11.01;100.00;97791.72;5014248;28;19975;-60
2023/04/20 05:11:07;;;;;;;;;;;;;;;11.01;100.00;97799.50;5021819;28;19994;-60
2023/04/20 05:13:33;;;;;;;;;;;;;;;11.05;100.00;97805.19;5041530;28;20012;-61
2023/04/20 05:15:58;;;;;;;;;;;;;;;11.07;100.00;97795.44;5024150;28;19978;-59
2023/04/20 05:18:23;;;;;;;;;;;;;;;10.97;100.00;97798.22;5026332;28;19974;-60
2023/04/20 05:20:49;;;;;;;;;;;;;;;10.92;100.00;97808.31;5011426;28;19932;-60
2023/04/20 05:23:17;;;;;;;;;;;;;;;10.81;100.00;97801.69;5032949;28;20534;-60
2023/04/20 05:25:42;;;;;;;;;;;;;;;10.93;100.00;97810.75;5019167;28;19947;-59
2023/04/20 05:28:07;;;;;;;;;;;;;;;10.92;100.00;97811.72;5018840;28;20802;-60
2023/04/20 05:30:33;;;;;;;;;;;;;;;10.94;100.00;97811.56;5020615;28;19936;-60
2023/04/20 05:32:58;;;;;;;;;;;;;;;10.98;100.00;97812.03;5019336;28;19925;-60
2023/04/20 05:35:26;;;;;;;;;;;;;;;10.96;100.00;97797.41;5026383;28;19928;-60
2023/04/20 05:37:51;;;;;;;;;;;;;;;11.04;100.00;97793.16;5020087;28;19924;-60
2023/04/20 05:40:17;;;;;;;;;;;;;;;10.78;100.00;97756.00;5026333;28;20291;-60
2023/04/20 05:42:43;;;;;;;;;;;;;;;10.98;100.00;97796.44;5036103;28;19928;-61
2023/04/20 05:45:09;;;;;;;;;;;;;;;11.03;100.00;97789.75;5024599;28;19929;-61
2023/04/20 05:47:34;;;;;;;;;;;;;;;11.02;100.00;97798.53;5024366;28;20402;-59
2023/04/20 05:49:59;;;;;;;;;;;;;;;11.12;100.00;97796.53;5028644;28;19927;-60
2023/04/20 05:52:25;;;;;;;;;;;;;;;11.08;100.00;97799.63;5031700;28;19935;-60
2023/04/20 05:54:50;;;;;;;;;;;;;;;11.02;100.00;97805.50;5028356;28;20392;-60
2023/04/20 05:57:16;;;;;;;;;;;;;;;11.12;100.00;97796.53;5029698;28;19931;-60
2023/04/20 05:59:43;;;;;;;;;;;;;;;11.15;100.00;97803.19;5009405;28;20434;-60
2023/04/20 06:02:11;;;;;;;;;;;;;;;11.12;100.00;97795.75;5013000;28;19929;-60
2023/04/20 06:04:36;;;;;;;;;;;;;;;11.08;100.00;97803.06;5001035;28;20014;-60
2023/04/20 06:07:03;;;;;;;;;;;;;;;11.12;100.00;97803.53;5002159;28;19921;-60
2023/04/20 06:09:30;;;;;;;;;;;;;;;11.16;100.00;97804.81;5004474;28;19928;-60
2023/04/20 06:11:56;;;;;;;;;;;;;;;11.15;100.00;97800.59;5010602;28;19917;-60
2023/04/20 06:14:21;;;;;;;;;;;;;;;11.21;100.00;97806.91;4993932;28;19975;-60
2023/04/20 06:16:49;;;;;;;;;;;;;;;11.13;100.00;97805.16;5005772;28;20384;-60
2023/04/20 06:19:14;;;;;;;;;;;;;;;11.09;100.00;97806.47;5025667;28;20627;-60
2023/04/20 06:21:40;;;;;;;;;;;;;;;11.16;100.00;97808.22;5005082;28;19925;-61
2023/04/20 06:24:05;;;;;;;;;;;;;;;11.21;100.00;97812.94;4998063;28;19925;-61
2023/04/20 06:26:33;;;;;;;;;;;;;;;11.16;100.00;97818.63;5009061;28;19925;-61
2023/04/20 06:28:58;;;;;;;;;;;;;;;11.24;100.00;97811.78;4994099;28;19940;-61
2023/04/20 06:31:23;;;;;;;;;;;;;;;11.25;100.00;97816.81;4997009;28;20374;-61
2023/04/20 06:33:51;;;;;;;;;;;;;;;11.28;100.00;97810.47;4992816;28;20028;-61
2023/04/20 06:36:20;;;;;;;;;;;;;;;11.25;100.00;97803.00;5010006;28;19993;-61
2023/04/20 06:38:45;;;;;;;;;;;;;;;11.26;100.00;97808.06;5007227;28;19928;-60
2023/04/20 06:41:13;;;;;;;;;;;;;;;11.21;100.00;97810.34;5010079;28;19946;-61
2023/04/20 06:43:38;;;;;;;;;;;;;;;11.19;100.00;97803.66;5024895;28;19929;-61
2023/04/20 06:46:03;;;;;;;;;;;;;;;11.25;100.00;97813.41;4987494;28;19974;-61
2023/04/20 06:48:33;;;;;;;;;;;;;;;11.29;100.00;97812.91;4992034;28;19975;-61
2023/04/20 06:51:00;;;;;;;;;;;;;;;11.23;100.00;97810.97;5025311;28;19964;-60
2023/04/20 06:53:25;;;;;;;;;;;;;;;11.19;100.00;97806.28;4992770;28;19964;-61
2023/04/20 06:55:52;;;;;;;;;;;;;;;11.24;100.00;97810.00;5004212;28;20453;-61
2023/04/20 06:58:17;;;;;;;;;;;;;;;11.37;100.00;97800.84;5025359;28;20231;-61
2023/04/20 07:00:46;;;;;;;;;;;;;;;11.39;100.00;97804.91;5011269;28;19929;-61
2023/04/20 07:03:11;;;;;;;;;;;;;;;11.37;100.00;97803.44;5045329;28;19925;-61
2023/04/20 07:05:39;;;;;;;;;;;;;;;11.41;100.00;97800.34;5045977;28;20280;-61
2023/04/20 07:08:05;;;;;;;;;;;;;;;11.39;100.00;97794.50;5047463;28;19968;-61
2023/04/20 07:10:30;;;;;;;;;;;;;;;11.46;100.00;97792.84;5010693;28;20478;-62
2023/04/20 07:12:56;;;;;;;;;;;;;;;11.50;100.00;97788.91;5014691;28;19971;-61
2023/04/20 07:15:21;;;;;;;;;;;;;;;11.60;100.00;97791.28;5046434;28;20323;-61
2023/04/20 07:17:47;;;;;;;;;;;;;;;11.62;100.00;97797.13;5035030;28;19916;-61
2023/04/20 07:20:14;;;;;;;;;;;;;;;11.64;100.00;97783.94;5043052;28;20511;-63
2023/04/20 07:22:40;;;;;;;;;;;;;;;11.73;100.00;97788.13;5012483;28;19961;-62
2023/04/20 07:25:08;;;;;;;;;;;;;;;11.73;100.00;97798.53;5019921;28;20236;-61
2023/04/20 07:27:39;;;;;;;;;;;;;;;11.76;100.00;97794.78;5026278;28;19981;-61
2023/04/20 07:30:06;;;;;;;;;;;;;;;11.80;100.00;97807.28;5029342;28;20004;-60
2023/04/20 07:32:35;;;;;;;;;;;;;;;11.74;100.00;97803.59;5012570;28;19982;-62
2023/04/20 07:35:03;;;;;;;;;;;;;;;11.69;100.00;97798.06;5027785;28;19983;-60
2023/04/20 07:37:28;;;;;;;;;;;;;;;11.67;100.00;97805.25;5042381;28;20004;-60
2023/04/20 07:39:53;;;;;;;;;;;;;;;11.59;100.00;97815.72;5045406;28;20019;-60
2023/04/20 07:42:23;;;;;;;;;;;;;;;11.54;100.00;97824.03;5028353;28;20156;-60
2023/04/20 07:44:49;;;;;;;;;;;;;;;11.59;100.00;97822.69;5010919;28;19932;-61
2023/04/20 07:47:14;;;;;;;;;;;;;;;11.58;100.00;97827.09;5027328;28;19928;-60
2023/04/20 07:49:40;;;;;;;;;;;;;;;11.56;100.00;97825.66;5024649;28;20291;-61
2023/04/20 07:52:06;;;;;;;;;;;;;;;11.63;100.00;97818.78;5007183;28;20474;-62
2023/04/20 07:54:34;;;;;;;;;;;;;;;11.61;100.00;97826.78;5012757;28;19928;-63
2023/04/20 07:57:02;;;;;;;;;;;;;;;11.58;100.00;97832.31;5012101;28;20351;-61
2023/04/20 07:59:29;;;;;;;;;;;;;;;11.58;100.00;97834.09;5030161;28;19925;-61
2023/04/20 08:02:01;;;;;;;;;;;;;;;11.54;100.00;97834.44;5004462;28;19925;-61
2023/04/20 08:04:26;;;;;;;;;;;;;;;11.41;100.00;97842.00;5005343;28;19928;-60
2023/04/20 08:06:51;;;;;;;;;;;;;;;11.41;100.00;97835.94;4991996;28;20303;-60
2023/04/20 08:09:17;;;;;;;;;;;;;;;11.42;100.00;97846.19;5005782;28;19936;-60
2023/04/20 08:11:47;;;;;;;;;;;;;;;11.43;100.00;97845.22;5023050;28;20383;-61
2023/04/20 08:14:13;;;;;;;;;;;;;;;11.31;100.00;97836.97;5008943;28;19971;-61
2023/04/20 08:16:38;;;;;;;;;;;;;;;11.40;100.00;97842.16;5005244;28;19933;-60
2023/04/20 08:19:08;;;;;;;;;;;;;;;11.35;100.00;97840.03;5002940;28;19936;-60
2023/04/20 08:21:37;;;;;;;;;;;;;;;11.30;100.00;97835.34;4991756;28;19932;-60
2023/04/20 08:24:03;;;;;;;;;;;;;;;11.34;100.00;97833.22;5006509;28;20311;-61
2023/04/20 08:26:33;;;;;;;;;;;;;;;11.27;100.00;97834.88;5003796;28;19921;-60
2023/04/20 08:28:59;;;;;;;;;;;;;;;11.35;100.00;97840.03;5003024;28;20542;-61
2023/04/20 08:31:24;;;;;;;;;;;;;;;11.38;100.00;97838.91;5008163;28;20044;-60
2023/04/20 08:33:50;;;;;;;;;;;;;;;11.34;100.00;97849.66;5006041;28;20020;-60
2023/04/20 08:36:15;;;;;;;;;;;;;;;11.32;100.00;97854.22;5007859;28;19925;-61
2023/04/20 08:38:43;;;;;;;;;;;;;;;11.35;100.00;97840.88;5003959;28;19929;-61
2023/04/20 08:41:14;;;;;;;;;;;;;;;11.37;100.00;97852.91;5000593;28;19925;-60
2023/04/20 08:43:39;;;;;;;;;;;;;;;11.29;100.00;97857.13;4988341;28;19932;-60
2023/04/20 08:46:04;;;;;;;;;;;;;;;11.28;100.00;97858.13;5004028;28;19921;-60
2023/04/20 08:48:34;;;;;;;;;;;;;;;11.38;100.00;97849.31;5003201;28;20364;-60
2023/04/20 08:51:00;;;;;;;;;;;;;;;11.32;100.00;97848.22;4988138;28;19921;-60
2023/04/20 08:53:26;;;;;;;;;;;;;;;11.34;100.00;97851.44;5007522;28;20373;-60
2023/04/20 08:55:55;;;;;;;;;;;;;;;11.38;100.00;97847.53;4986982;28;20430;-60
2023/04/20 08:58:21;;;;;;;;;;;;;;;11.38;100.00;97857.94;4987454;28;20018;-60
2023/04/20 09:00:47;;;;;;;;;;;;;;;11.30;100.00;97853.56;4990753;28;20467;-60
2023/04/20 09:03:14;;;;;;;;;;;;;;;11.41;100.00;97847.19;4989543;28;19976;-61
2023/04/20 09:05:40;;;;;;;;;;;;;;;11.37;100.00;97850.28;5019142;28;19972;-60
2023/04/20 09:08:07;;;;;;;;;;;;;;;11.30;100.00;97858.78;5018250;28;19968;-60
2023/04/20 09:10:39;;;;;;;;;;;;;;;11.34;100.00;97854.84;5016084;28;19921;-61
2023/04/20 09:13:04;;;;;;;;;;;;;;;11.27;100.00;97850.50;5017207;28;20498;-61
2023/04/20 09:15:30;;;;;;;;;;;;;;;11.31;100.00;97859.59;5017795;28;19922;-60
2023/04/20 09:17:56;;;;;;;;;;;;;;;11.39;100.00;97849.16;5016750;28;20556;-60
2023/04/20 09:20:31;;;;;;;;;;;;;;;11.26;100.00;97856.66;5018671;28;20477;-61
2023/04/20 09:22:58;;;;;;;;;;;;;;;11.35;100.00;97851.28;5019629;28;20042;-60
2023/04/20 09:25:26;;;;;;;;;;;;;;;11.45;100.00;97851.06;5002654;28;20445;-60
2023/04/20 09:27:55;;;;;;;;;;;;;;;11.49;100.00;97841.13;5005103;28;19975;-60
2023/04/20 09:30:20;;;;;;;;;;;;;;;11.62;100.00;97838.78;5020336;28;19921;-61
2023/04/20 09:32:45;;;;;;;;;;;;;;;11.56;100.00;97830.88;5024972;28;19921;-60
2023/04/20 09:35:20;;;;;;;;;;;;;;;11.70;100.00;97814.50;5005742;28;19933;-60
2023/04/20 09:37:46;;;;;;;;;;;;;;;11.88;100.00;97807.25;5022569;28;20523;-60
2023/04/20 09:40:11;;;;;;;;;;;;;;;12.00;100.00;97819.91;5008079;28;19924;-62
2023/04/20 09:42:37;;;;;;;;;;;;;;;12.15;100.00;97812.94;5019952;28;20256;-60
2023/04/20 09:45:02;;;;;;;;;;;;;;;12.03;100.00;97819.53;4990719;28;19990;-60
2023/04/20 09:47:30;;;;;;;;;;;;;;;11.96;100.00;97818.63;5016939;28;20428;-60
2023/04/20 09:49:55;;;;;;;;;;;;;;;11.93;100.00;97836.22;5009428;28;19925;-61
2023/04/20 09:52:23;;;;;;;;;;;;;;;11.89;100.00;97839.31;4998949;28;19935;-60
2023/04/20 09:54:49;;;;;;;;;;;;;;;11.83;100.00;97853.84;5021891;28;19954;-60
2023/04/20 09:57:14;;;;;;;;;;;;;;;11.72;100.00;97844.63;5003196;28;20479;-60
2023/04/20 09:59:41;;;;;;;;;;;;;;;11.67;100.00;97853.91;5021787;28;19928;-60
2023/04/20 10:02:08;;;;;;;;;;;;;;;11.62;100.00;97864.03;4956503;28;1844275;-59
2023/04/20 10:04:36;;;;;;;;;;;;;;;11.59;100.00;97859.97;5023633;28;19929;-59
2023/04/20 10:07:05;;;;;;;;;;;;;;;11.52;100.00;97875.47;5026204;28;19933;-60
2023/04/20 10:09:32;;;;;;;;;;;;;;;11.47;100.00;97863.94;5021175;28;19921;-59
2023/04/20 10:12:07;;;;;;;;;;;;;;;11.46;100.00;97864.91;5011003;28;19931;-61
2023/04/20 10:14:35;;;;;;;;;;;;;;;11.41;100.00;97852.41;5019798;28;19943;-60
2023/04/20 10:17:04;;;;;;;;;;;;;;;11.50;100.00;97859.19;5025055;28;19925;-60
2023/04/20 10:19:37;;;;;;;;;;;;;;;11.47;100.00;97850.91;5010763;28;19916;-60
2023/04/20 10:22:03;;;;;;;;;;;;;;;11.64;100.00;97846.44;5030825;28;19960;-61
2023/04/20 10:24:28;;;;;;;;;;;;;;;11.58;100.00;97839.31;5023943;28;20020;-60
2023/04/20 10:26:56;;;;;;;;;;;;;;;11.24;100.00;97817.00;5009154;28;19948;-61
2023/04/20 10:29:26;;;;;;;;;;;;;;;11.55;100.00;97848.25;5020893;28;20535;-60
2023/04/20 10:31:52;;;;;;;;;;;;;;;11.61;100.00;97844.16;5006551;28;19920;-61
2023/04/20 10:34:27;;;;;;;;;;;;;;;11.60;100.00;97856.38;5009925;28;20406;-60
2023/04/20 10:36:55;;;;;;;;;;;;;;;11.50;100.00;97854.00;5021857;28;20379;-61
2023/04/20 10:39:21;;;;;;;;;;;;;;;11.50;100.00;97853.19;5024295;28;19924;-64
2023/04/20 10:41:53;;;;;;;;;;;;;;;11.47;100.00;97848.31;5039220;28;20591;-62
2023/04/20 10:44:20;;;;;;;;;;;;;;;11.40;100.00;97845.56;5023384;28;20454;-62
2023/04/20 10:46:49;;;;;;;;;;;;;;;11.60;100.00;97837.34;5024626;28;20379;-62
2023/04/20 10:49:15;;;;;;;;;;;;;;;11.72;100.00;97825.59;5023390;28;20481;-63
2023/04/20 10:51:50;;;;;;;;;;;;;;;11.81;100.00;97808.94;5022405;28;19936;-62
2023/04/20 10:54:16;;;;;;;;;;;;;;;11.94;100.00;97816.19;5022633;28;19943;-62
2023/04/20 10:56:46;;;;;;;;;;;;;;;11.91;100.00;97801.72;5039484;28;19925;-64
2023/04/20 10:59:17;;;;;;;;;;;;;;;11.87;100.00;97797.81;5026098;28;19932;-61
2023/04/20 11:01:45;;;;;;;;;;;;;;;11.75;100.00;97796.56;5026002;28;19998;-62
2023/04/20 11:04:10;;;;;;;;;;;;;;;11.64;100.00;97805.56;5024674;28;19925;-63
2023/04/20 11:06:39;;;;;;;;;;;;;;;11.54;100.00;97805.00;5026589;28;19917;-61
2023/04/20 11:09:17;;;;;;;;;;;;;;;11.59;100.00;97807.91;5011236;28;19940;-61
2023/04/20 11:11:43;;;;;;;;;;;;;;;11.51;100.00;97824.34;5029061;28;19921;-63
2023/04/20 11:14:08;;;;;;;;;;;;;;;11.53;100.00;97817.19;5024597;28;19924;-62
2023/04/20 11:16:36;;;;;;;;;;;;;;;11.41;100.00;97818.56;5006810;28;19933;-62
2023/04/20 11:19:04;;;;;;;;;;;;;;;11.39;100.00;97830.94;5014780;28;20023;-64
2023/04/20 11:21:38;;;;;;;;;;;;;;;11.23;100.00;97818.00;5028038;28;19916;-63
2023/04/20 11:24:05;;;;;;;;;;;;;;;11.04;100.00;97822.56;5038184;28;20470;-59
2023/04/20 11:26:36;;;;;;;;;;;;;;;10.97;100.00;97811.25;5029500;28;19944;-61
2023/04/20 11:29:04;;;;;;;;;;;;;;;10.83;100.00;97817.13;5007393;28;19925;-61
2023/04/20 11:31:29;;;;;;;;;;;;;;;10.71;100.00;97811.44;5042884;28;19921;-61
2023/04/20 11:33:55;;;;;;;;;;;;;;;10.68;100.00;97823.00;5025012;28;19936;-61
2023/04/20 11:36:27;;;;;;;;;;;;;;;10.47;100.00;97817.47;5010725;28;19980;-62
2023/04/20 11:38:52;;;;;;;;;;;;;;;10.48;100.00;97806.91;5024731;28;19955;-59
2023/04/20 11:41:18;;;;;;;;;;;;;;;10.51;100.00;97800.56;5024890;28;19928;-63
2023/04/20 11:43:45;;;;;;;;;;;;;;;10.37;100.00;97799.47;5027062;28;19932;-64
2023/04/20 11:46:12;;;;;;;;;;;;;;;10.44;100.00;97791.81;5026537;28;19921;-61
2023/04/20 11:48:37;;;;;;;;;;;;;;;10.47;100.00;97788.88;5028682;28;19925;-59
2023/04/20 11:51:02;;;;;;;;;;;;;;;10.50;100.00;97791.97;5023698;28;19928;-60
2023/04/20 11:53:28;;;;;;;;;;;;;;;10.48;100.00;97785.31;5013343;28;20748;-61
2023/04/20 11:55:53;;;;;;;;;;;;;;;10.47;100.00;97794.88;5037757;28;19944;-61
2023/04/20 11:58:18;;;;;;;;;;;;;;;10.44;100.00;97787.44;5029284;28;19921;-63
2023/04/20 12:00:44;;;;;;;;;;;;;;;10.41;100.00;97784.34;5019655;28;20299;-62
2023/04/20 12:03:09;;;;;;;;;;;;;;;10.35;100.00;97793.63;5007717;28;19929;-59
2023/04/20 12:05:34;;;;;;;;;;;;;;;10.41;100.00;97803.34;4995034;28;20376;-62
2023/04/20 12:08:00;;;;;;;;;;;;;;;10.34;100.00;97813.56;5007083;28;19964;-64
2023/04/20 12:10:27;;;;;;;;;;;;;;;10.30;100.00;97814.84;4994485;28;19921;-63
2023/04/20 12:12:53;;;;;;;;;;;;;;;10.17;100.00;97812.72;4991091;28;19986;-59
2023/04/20 12:15:18;;;;;;;;;;;;;;;10.22;100.00;97808.84;5006790;28;20376;-61
2023/04/20 12:17:46;;;;;;;;;;;;;;;10.27;100.00;97798.78;5009868;28;20405;-61
2023/04/20 12:20:11;;;;;;;;;;;;;;;10.28;100.00;97796.00;4991173;28;20051;-59
2023/04/20 12:22:36;;;;;;;;;;;;;;;10.42;100.00;97798.94;5004401;28;19920;-60
2023/04/20 12:25:05;;;;;;;;;;;;;;;10.42;100.00;97794.56;4990189;28;20007;-59
2023/04/20 12:27:33;;;;;;;;;;;;;;;10.36;100.00;97790.84;4991450;28;20015;-61
2023/04/20 12:29:58;;;;;;;;;;;;;;;10.47;100.00;97797.50;5024803;28;19961;-59
2023/04/20 12:32:26;;;;;;;;;;;;;;;10.46;100.00;97797.66;5009024;28;19998;-61